createdAt,value
2018-06-18T00:00:44.168Z,16.83
2018-06-18T00:01:44.379Z,16.68
2018-06-18T00:02:44.584Z,16.75
2018-06-18T00:03:44.766Z,16.68
2018-06-18T00:04:44.969Z,16.79
2018-06-18T00:05:45.185Z,16.83
2018-06-18T00:06:45.371Z,16.81
2018-06-18T00:07:45.574Z,16.78
2018-06-18T00:08:45.763Z,16.79
2018-06-18T00:09:45.964Z,16.71
2018-06-18T00:10:46.168Z,16.76
2018-06-18T00:11:46.360Z,16.71
2018-06-18T00:12:46.583Z,16.70
2018-06-18T00:13:46.788Z,16.63
2018-06-18T00:14:46.970Z,16.67
2018-06-18T00:15:47.172Z,16.64
2018-06-18T00:16:47.375Z,16.70
2018-06-18T00:17:47.581Z,16.64
2018-06-18T00:18:47.791Z,16.64
2018-06-18T00:19:47.979Z,16.60
2018-06-18T00:20:48.166Z,16.63
2018-06-18T00:21:48.354Z,16.57
2018-06-18T00:22:48.553Z,16.52
2018-06-18T00:23:48.761Z,16.57
2018-06-18T00:24:48.948Z,16.43
2018-06-18T00:25:49.143Z,16.39
2018-06-18T00:26:49.333Z,16.42
2018-06-18T00:27:49.533Z,16.42
2018-06-18T00:28:49.733Z,16.41
2018-06-18T00:29:49.937Z,16.31
2018-06-18T00:32:22.348Z,16.38
2018-06-18T00:33:22.231Z,16.25
2018-06-18T00:34:22.301Z,16.23
2018-06-18T00:35:22.481Z,16.21
2018-06-18T00:36:22.673Z,16.25
2018-06-18T00:37:22.863Z,16.02
2018-06-18T00:38:23.086Z,16.08
2018-06-18T00:39:23.312Z,15.94
2018-06-18T00:40:23.525Z,16.01
2018-06-18T00:41:23.734Z,15.97
2018-06-18T00:42:23.924Z,15.89
2018-06-18T00:43:24.144Z,16.00
2018-06-18T00:44:24.331Z,15.90
2018-06-18T00:45:24.531Z,15.83
2018-06-18T00:46:24.717Z,15.84
2018-06-18T00:47:24.913Z,15.80
2018-06-18T00:48:25.119Z,15.75
2018-06-18T00:49:25.326Z,15.75
2018-06-18T00:50:25.513Z,15.72
2018-06-18T00:51:25.699Z,15.68
2018-06-18T00:52:25.905Z,15.67
2018-06-18T00:53:26.113Z,15.53
2018-06-18T00:55:58.211Z,15.53
2018-06-18T00:56:58.383Z,15.44
2018-06-18T00:59:30.508Z,15.47
2018-06-18T01:00:30.680Z,15.41
2018-06-18T01:01:30.873Z,15.43
2018-06-18T01:02:31.073Z,15.51
2018-06-18T01:03:31.264Z,15.50
2018-06-18T01:04:31.466Z,15.46
2018-06-18T01:07:03.767Z,15.51
2018-06-18T01:08:03.948Z,15.51
2018-06-18T01:09:04.153Z,15.54
2018-06-18T01:10:04.371Z,15.57
2018-06-18T01:11:04.567Z,15.53
2018-06-18T01:12:04.766Z,15.53
2018-06-18T01:13:04.983Z,15.50
2018-06-18T01:14:05.189Z,15.59
2018-06-18T01:15:05.394Z,15.59
2018-06-18T01:16:05.579Z,15.68
2018-06-18T01:18:37.698Z,15.62
2018-06-18T01:19:37.877Z,15.60
2018-06-18T01:20:38.078Z,15.67
2018-06-18T01:21:38.276Z,15.72
2018-06-18T01:22:38.462Z,15.60
2018-06-18T01:23:38.661Z,15.53
2018-06-18T01:24:38.871Z,15.59
2018-06-18T01:25:39.056Z,15.64
2018-06-18T01:26:39.249Z,15.47
2018-06-18T01:27:39.433Z,15.50
2018-06-18T01:28:39.618Z,15.50
2018-06-18T01:29:39.816Z,15.49
2018-06-18T01:30:40.006Z,15.46
2018-06-18T01:31:40.219Z,15.32
2018-06-18T01:32:40.424Z,15.47
2018-06-18T01:33:40.633Z,15.41
2018-06-18T01:34:40.824Z,15.38
2018-06-18T01:35:41.037Z,15.31
2018-06-18T01:36:41.227Z,15.31
2018-06-18T01:37:41.443Z,15.35
2018-06-18T01:38:41.654Z,15.32
2018-06-18T01:39:41.844Z,15.21
2018-06-18T01:40:42.062Z,15.20
2018-06-18T01:41:42.254Z,15.21
2018-06-18T01:42:42.452Z,15.19
2018-06-18T01:43:42.660Z,15.03
2018-06-18T01:44:42.851Z,14.96
2018-06-18T01:45:43.065Z,14.95
2018-06-18T01:46:43.253Z,14.83
2018-06-18T01:47:43.433Z,14.81
2018-06-18T01:48:43.634Z,14.84
2018-06-18T01:49:43.836Z,14.78
2018-06-18T01:50:44.017Z,14.69
2018-06-18T01:51:44.207Z,14.61
2018-06-18T01:52:44.415Z,14.64
2018-06-18T01:53:44.639Z,14.60
2018-06-18T01:54:44.834Z,14.69
2018-06-18T01:55:45.026Z,14.64
2018-06-18T01:56:45.218Z,14.64
2018-06-18T01:57:45.413Z,14.58
2018-06-18T01:58:45.603Z,14.57
2018-06-18T01:59:45.806Z,14.52
2018-06-18T02:00:46.084Z,14.52
2018-06-18T02:03:18.049Z,14.62
2018-06-18T02:04:18.224Z,14.65
2018-06-18T02:05:18.407Z,14.58
2018-06-18T02:06:18.612Z,14.58
2018-06-18T02:07:18.805Z,14.61
2018-06-18T02:08:19.001Z,14.62
2018-06-18T02:09:19.186Z,14.65
2018-06-18T02:10:19.398Z,14.58
2018-06-18T02:11:19.581Z,14.65
2018-06-18T02:12:19.822Z,14.69
2018-06-18T02:13:19.995Z,14.70
2018-06-18T02:14:20.184Z,14.64
2018-06-18T02:15:20.374Z,14.69
2018-06-18T02:17:52.502Z,14.73
2018-06-18T02:18:52.674Z,14.78
2018-06-18T02:19:52.860Z,14.78
2018-06-18T02:20:53.066Z,14.75
2018-06-18T02:21:53.254Z,14.75
2018-06-18T02:22:53.480Z,14.65
2018-06-18T02:23:53.694Z,14.80
2018-06-18T02:24:53.898Z,14.73
2018-06-18T02:25:54.090Z,14.69
2018-06-18T02:26:54.401Z,14.72
2018-06-18T02:27:54.489Z,14.77
2018-06-18T02:28:54.684Z,14.72
2018-06-18T02:29:54.885Z,14.58
2018-06-18T02:30:55.094Z,14.73
2018-06-18T02:31:55.294Z,14.62
2018-06-18T02:32:55.490Z,14.51
2018-06-18T02:33:55.677Z,14.57
2018-06-18T02:34:55.882Z,14.61
2018-06-18T02:35:56.087Z,14.47
2018-06-18T02:36:56.297Z,14.47
2018-06-18T02:37:56.488Z,14.43
2018-06-18T02:38:56.694Z,14.45
2018-06-18T02:39:56.885Z,14.40
2018-06-18T02:40:57.075Z,14.36
2018-06-18T02:41:57.282Z,14.40
2018-06-18T02:42:57.470Z,14.33
2018-06-18T02:43:57.678Z,14.32
2018-06-18T02:44:57.914Z,14.37
2018-06-18T02:45:58.106Z,14.36
2018-06-18T02:48:29.921Z,14.54
2018-06-18T02:49:30.095Z,14.42
2018-06-18T02:50:30.310Z,14.35
2018-06-18T02:51:30.499Z,14.37
2018-06-18T02:52:30.705Z,14.37
2018-06-18T02:53:30.897Z,14.46
2018-06-18T02:54:31.094Z,14.47
2018-06-18T02:55:31.275Z,14.47
2018-06-18T02:56:31.477Z,14.42
2018-06-18T02:57:31.662Z,14.43
2018-06-18T03:00:03.773Z,14.37
2018-06-18T03:01:03.945Z,14.43
2018-06-18T03:02:04.145Z,14.43
2018-06-18T03:03:04.449Z,14.51
2018-06-18T03:04:04.526Z,14.51
2018-06-18T03:05:04.733Z,14.43
2018-06-18T03:06:04.913Z,14.46
2018-06-18T03:07:05.095Z,14.47
2018-06-18T03:08:05.302Z,14.50
2018-06-18T03:09:05.494Z,14.62
2018-06-18T03:10:05.682Z,14.46
2018-06-18T03:11:05.888Z,14.58
2018-06-18T03:12:06.072Z,14.62
2018-06-18T03:13:06.258Z,14.54
2018-06-18T03:14:06.464Z,14.52
2018-06-18T03:15:06.660Z,14.58
2018-06-18T03:16:06.864Z,14.57
2018-06-18T03:17:07.068Z,14.65
2018-06-18T03:18:07.267Z,14.55
2018-06-18T03:19:07.465Z,14.62
2018-06-18T03:21:39.610Z,14.72
2018-06-18T03:22:39.781Z,14.83
2018-06-18T03:23:39.975Z,14.83
2018-06-18T03:24:40.167Z,14.81
2018-06-18T03:25:40.357Z,14.88
2018-06-18T03:26:40.705Z,14.78
2018-06-18T03:27:40.794Z,14.78
2018-06-18T03:28:40.978Z,14.72
2018-06-18T03:29:41.188Z,14.70
2018-06-18T03:30:41.368Z,14.75
2018-06-18T03:31:41.557Z,14.70
2018-06-18T03:32:41.762Z,14.68
2018-06-18T03:33:41.947Z,14.77
2018-06-18T03:34:42.161Z,14.72
2018-06-18T03:35:42.372Z,14.81
2018-06-18T03:36:42.589Z,14.83
2018-06-18T03:37:42.769Z,14.81
2018-06-18T03:38:42.986Z,14.83
2018-06-18T03:39:43.188Z,14.89
2018-06-18T03:40:43.381Z,15.03
2018-06-18T03:41:43.585Z,15.10
2018-06-18T03:42:43.765Z,15.11
2018-06-18T03:43:43.948Z,15.13
2018-06-18T03:44:44.266Z,15.17
2018-06-18T03:45:44.341Z,15.10
2018-06-18T03:46:44.538Z,15.01
2018-06-18T03:47:44.746Z,14.92
2018-06-18T03:48:44.942Z,14.99
2018-06-18T03:49:45.127Z,14.98
2018-06-18T03:50:45.317Z,14.96
2018-06-18T03:51:45.526Z,15.02
2018-06-18T03:52:45.720Z,15.03
2018-06-18T03:53:45.918Z,15.11
2018-06-18T03:54:46.127Z,15.17
2018-06-18T03:55:46.337Z,14.98
2018-06-18T03:56:46.542Z,14.96
2018-06-18T03:57:46.728Z,15.11
2018-06-18T03:58:46.914Z,15.07
2018-06-18T03:59:47.129Z,15.07
2018-06-18T04:00:47.313Z,15.16
2018-06-18T04:01:47.515Z,15.06
2018-06-18T04:02:47.729Z,15.09
2018-06-18T04:03:47.921Z,15.11
2018-06-18T04:04:48.127Z,15.14
2018-06-18T04:05:48.332Z,15.19
2018-06-18T04:06:48.516Z,15.20
2018-06-18T04:07:48.701Z,15.27
2018-06-18T04:08:48.887Z,15.19
2018-06-18T04:09:49.110Z,15.14
2018-06-18T04:10:49.313Z,14.99
2018-06-18T04:11:49.513Z,14.88
2018-06-18T04:12:49.711Z,14.84
2018-06-18T04:13:49.922Z,14.81
2018-06-18T04:14:50.122Z,14.69
2018-06-18T04:15:50.336Z,14.70
2018-06-18T04:16:50.563Z,14.78
2018-06-18T04:17:50.784Z,14.84
2018-06-18T04:18:50.978Z,14.80
2018-06-18T04:19:51.194Z,14.88
2018-06-18T04:20:51.403Z,14.92
2018-06-18T04:23:23.690Z,14.91
2018-06-18T04:24:23.872Z,15.06
2018-06-18T04:25:24.086Z,15.19
2018-06-18T04:26:24.267Z,15.29
2018-06-18T04:27:24.456Z,15.38
2018-06-18T04:28:24.674Z,16.01
2018-06-18T04:29:24.859Z,16.38
2018-06-18T04:30:25.044Z,16.78
2018-06-18T04:31:25.231Z,16.94
2018-06-18T04:32:25.444Z,16.85
2018-06-18T04:33:25.639Z,16.85
2018-06-18T04:34:25.828Z,16.70
2018-06-18T04:35:26.012Z,16.68
2018-06-18T04:36:26.216Z,16.48
2018-06-18T04:37:26.412Z,16.38
2018-06-18T04:38:26.609Z,16.25
2018-06-18T04:39:26.846Z,16.27
2018-06-18T04:40:27.016Z,16.35
2018-06-18T04:41:27.221Z,16.31
2018-06-18T04:42:27.405Z,16.17
2018-06-18T04:43:27.616Z,16.11
2018-06-18T04:44:27.831Z,15.93
2018-06-18T04:45:28.040Z,15.93
2018-06-18T04:46:28.237Z,16.07
2018-06-18T04:47:28.441Z,15.96
2018-06-18T04:48:28.650Z,15.94
2018-06-18T04:49:28.841Z,15.90
2018-06-18T04:50:29.057Z,16.02
2018-06-18T04:51:29.259Z,15.94
2018-06-18T04:52:29.452Z,15.96
2018-06-18T04:53:29.660Z,15.92
2018-06-18T04:54:29.873Z,16.15
2018-06-18T04:55:30.077Z,16.24
2018-06-18T04:56:30.343Z,16.39
2018-06-18T04:57:30.475Z,16.38
2018-06-18T04:58:30.666Z,16.56
2018-06-18T04:59:30.856Z,16.57
2018-06-18T05:00:31.044Z,16.43
2018-06-18T05:01:31.255Z,16.33
2018-06-18T05:02:31.454Z,16.20
2018-06-18T05:03:31.653Z,16.25
2018-06-18T05:04:31.843Z,16.34
2018-06-18T05:07:03.976Z,16.50
2018-06-18T05:08:04.151Z,16.68
2018-06-18T05:09:04.347Z,16.67
2018-06-18T05:10:04.563Z,16.71
2018-06-18T05:11:04.757Z,16.75
2018-06-18T05:13:36.854Z,16.76
2018-06-18T05:14:37.039Z,16.91
2018-06-18T05:15:37.240Z,16.94
2018-06-18T05:16:37.420Z,16.98
2018-06-18T05:17:37.610Z,17.07
2018-06-18T05:18:37.812Z,17.03
2018-06-18T05:19:38.012Z,17.12
2018-06-18T05:20:38.265Z,17.07
2018-06-18T05:21:38.438Z,17.11
2018-06-18T05:22:38.666Z,17.12
2018-06-18T05:23:38.878Z,16.93
2018-06-18T05:24:39.083Z,16.86
2018-06-18T05:25:39.291Z,16.94
2018-06-18T05:26:39.490Z,16.97
2018-06-18T05:27:39.670Z,16.93
2018-06-18T05:28:39.862Z,16.81
2018-06-18T05:29:40.052Z,16.66
2018-06-18T05:30:40.246Z,16.52
2018-06-18T05:31:40.456Z,16.50
2018-06-18T05:32:40.671Z,16.52
2018-06-18T05:33:40.875Z,16.45
2018-06-18T05:34:41.087Z,16.42
2018-06-18T05:35:41.303Z,16.35
2018-06-18T05:36:41.862Z,16.41
2018-06-18T05:37:42.340Z,16.35
2018-06-18T05:38:42.633Z,16.56
2018-06-18T05:39:42.059Z,16.52
2018-06-18T05:40:42.275Z,16.53
2018-06-18T05:41:42.468Z,16.68
2018-06-18T05:42:42.670Z,16.76
2018-06-18T05:43:42.882Z,16.67
2018-06-18T05:44:43.083Z,16.82
2018-06-18T05:45:43.276Z,16.86
2018-06-18T05:46:43.473Z,16.94
2018-06-18T05:47:43.685Z,17.14
2018-06-18T05:48:43.965Z,17.48
2018-06-18T05:49:44.049Z,17.43
2018-06-18T05:50:44.297Z,17.78
2018-06-18T05:51:44.443Z,18.12
2018-06-18T05:52:44.654Z,18.26
2018-06-18T05:53:44.840Z,18.42
2018-06-18T05:54:45.054Z,18.52
2018-06-18T05:55:45.255Z,18.67
2018-06-18T05:56:45.458Z,18.80
2018-06-18T05:57:45.664Z,18.95
2018-06-18T05:58:45.872Z,19.23
2018-06-18T05:59:46.080Z,19.86
2018-06-18T06:00:46.297Z,20.97
2018-06-18T06:01:46.494Z,20.16
2018-06-18T06:02:46.705Z,19.46
2018-06-18T06:03:46.910Z,18.98
2018-06-18T06:04:47.093Z,18.90
2018-06-18T06:05:47.281Z,18.92
2018-06-18T06:06:47.482Z,19.16
2018-06-18T06:07:47.677Z,19.59
2018-06-18T06:08:47.894Z,19.88
2018-06-18T06:09:48.106Z,20.13
2018-06-18T06:10:48.298Z,19.77
2018-06-18T06:11:48.495Z,19.36
2018-06-18T06:12:48.737Z,19.26
2018-06-18T06:13:48.897Z,18.95
2018-06-18T06:14:49.116Z,19.28
2018-06-18T06:15:49.335Z,19.04
2018-06-18T06:16:49.568Z,19.07
2018-06-18T06:17:49.719Z,19.14
2018-06-18T06:18:49.939Z,19.00
2018-06-18T06:19:50.124Z,18.84
2018-06-18T06:20:50.335Z,18.58
2018-06-18T06:21:50.549Z,18.54
2018-06-18T06:22:50.754Z,18.42
2018-06-18T06:23:50.950Z,18.12
2018-06-18T06:24:51.163Z,18.03
2018-06-18T06:25:51.364Z,18.03
2018-06-18T06:26:51.573Z,18.11
2018-06-18T06:27:51.785Z,18.07
2018-06-18T06:28:52.001Z,17.90
2018-06-18T06:29:52.203Z,18.07
2018-06-18T06:30:52.415Z,18.12
2018-06-18T06:31:52.636Z,18.12
2018-06-18T06:32:52.841Z,18.17
2018-06-18T06:33:53.049Z,18.20
2018-06-18T06:34:53.259Z,18.07
2018-06-18T06:35:53.452Z,18.26
2018-06-18T06:36:53.648Z,18.37
2018-06-18T06:37:53.862Z,18.33
2018-06-18T06:38:54.059Z,18.42
2018-06-18T06:39:54.308Z,18.33
2018-06-18T06:40:54.513Z,18.57
2018-06-18T06:41:54.715Z,18.84
2018-06-18T06:42:54.902Z,19.04
2018-06-18T06:45:26.744Z,19.54
2018-06-18T06:46:26.916Z,19.56
2018-06-18T06:47:27.131Z,19.50
2018-06-18T06:48:27.318Z,19.56
2018-06-18T06:49:27.526Z,19.40
2018-06-18T06:50:27.738Z,19.39
2018-06-18T06:52:59.855Z,19.07
2018-06-18T06:54:00.035Z,19.11
2018-06-18T06:55:00.236Z,19.25
2018-06-18T06:56:00.466Z,19.50
2018-06-18T06:57:00.650Z,19.51
2018-06-18T06:58:00.839Z,19.33
2018-06-18T06:59:01.044Z,19.26
2018-06-18T07:00:01.235Z,19.29
2018-06-18T07:01:01.420Z,19.13
2018-06-18T07:02:01.604Z,19.13
2018-06-18T07:03:01.812Z,19.21
2018-06-18T07:04:02.004Z,19.16
2018-06-18T07:05:02.213Z,19.02
2018-06-18T07:06:02.425Z,18.84
2018-06-18T07:07:02.653Z,18.70
2018-06-18T07:08:02.927Z,18.66
2018-06-18T07:09:03.077Z,18.82
2018-06-18T07:10:03.270Z,18.85
2018-06-18T07:11:03.456Z,18.67
2018-06-18T07:12:03.659Z,18.69
2018-06-18T07:13:03.851Z,18.91
2018-06-18T07:14:04.059Z,19.00
2018-06-18T07:15:04.247Z,19.04
2018-06-18T07:16:04.444Z,18.76
2018-06-18T07:17:04.653Z,18.80
2018-06-18T07:18:04.855Z,18.72
2018-06-18T07:19:05.056Z,18.62
2018-06-18T07:20:05.266Z,18.72
2018-06-18T07:21:05.456Z,18.75
2018-06-18T07:23:37.568Z,18.73
2018-06-18T07:24:37.743Z,18.67
2018-06-18T07:25:37.954Z,18.65
2018-06-18T07:26:38.166Z,18.73
2018-06-18T07:27:38.364Z,18.78
2018-06-18T07:28:38.552Z,18.88
2018-06-18T07:29:38.781Z,18.98
2018-06-18T07:30:38.977Z,18.98
2018-06-18T07:31:39.174Z,19.07
2018-06-18T07:32:39.388Z,19.08
2018-06-18T07:33:39.602Z,19.19
2018-06-18T07:34:39.811Z,19.16
2018-06-18T07:35:39.993Z,19.11
2018-06-18T07:36:40.204Z,19.00
2018-06-18T07:37:40.391Z,18.98
2018-06-18T07:38:40.616Z,19.07
2018-06-18T07:39:40.825Z,19.07
2018-06-18T07:40:41.043Z,19.00
2018-06-18T07:41:41.240Z,19.23
2018-06-18T07:42:41.433Z,19.28
2018-06-18T07:43:41.655Z,19.39
2018-06-18T07:44:41.871Z,19.36
2018-06-18T07:45:42.103Z,19.37
2018-06-18T07:46:42.274Z,19.40
2018-06-18T07:47:42.478Z,19.47
2018-06-18T07:48:42.664Z,19.41
2018-06-18T07:49:42.880Z,19.51
2018-06-18T07:50:43.077Z,19.58
2018-06-18T07:51:43.286Z,19.50
2018-06-18T07:52:43.488Z,19.58
2018-06-18T07:53:43.677Z,19.39
2018-06-18T07:54:43.888Z,19.37
2018-06-18T07:57:15.747Z,19.51
2018-06-18T07:58:15.927Z,19.63
2018-06-18T07:59:16.138Z,19.84
2018-06-18T08:00:16.378Z,19.87
2018-06-18T08:01:16.569Z,20.05
2018-06-18T08:02:16.776Z,19.95
2018-06-18T08:03:16.976Z,19.81
2018-06-18T08:04:17.165Z,19.86
2018-06-18T08:05:17.354Z,19.86
2018-06-18T08:06:17.568Z,19.99
2018-06-18T08:07:17.775Z,19.99
2018-06-18T08:08:17.980Z,19.95
2018-06-18T08:09:18.198Z,20.05
2018-06-18T08:10:18.410Z,19.95
2018-06-18T08:11:18.598Z,19.91
2018-06-18T08:12:18.803Z,20.06
2018-06-18T08:13:18.999Z,19.83
2018-06-18T08:14:19.198Z,19.92
2018-06-18T08:15:19.386Z,19.88
2018-06-18T08:16:19.565Z,20.05
2018-06-18T08:17:19.776Z,20.13
2018-06-18T08:18:19.958Z,20.18
2018-06-18T08:19:20.161Z,20.28
2018-06-18T08:20:20.364Z,20.33
2018-06-18T08:21:20.555Z,20.31
2018-06-18T08:22:20.764Z,20.50
2018-06-18T08:23:20.969Z,20.36
2018-06-18T08:24:21.183Z,20.51
2018-06-18T08:25:21.401Z,20.67
2018-06-18T08:26:21.621Z,20.48
2018-06-18T08:28:53.850Z,20.94
2018-06-18T08:29:54.033Z,21.14
2018-06-18T08:30:54.234Z,20.94
2018-06-18T08:31:54.451Z,20.84
2018-06-18T08:32:54.673Z,20.69
2018-06-18T08:33:54.863Z,20.69
2018-06-18T08:34:55.132Z,20.38
2018-06-18T08:35:55.277Z,20.23
2018-06-18T08:36:55.475Z,20.17
2018-06-18T08:37:55.686Z,20.02
2018-06-18T08:38:55.884Z,20.26
2018-06-18T08:39:56.084Z,20.35
2018-06-18T08:40:56.299Z,20.35
2018-06-18T08:41:56.510Z,20.28
2018-06-18T08:42:56.732Z,20.32
2018-06-18T08:43:56.922Z,20.28
2018-06-18T08:44:57.136Z,20.17
2018-06-18T08:45:57.345Z,20.26
2018-06-18T08:46:57.554Z,20.16
2018-06-18T08:47:57.771Z,20.08
2018-06-18T08:48:57.982Z,20.05
2018-06-18T08:49:58.175Z,20.05
2018-06-18T08:50:58.364Z,20.05
2018-06-18T08:51:58.585Z,20.26
2018-06-18T08:52:58.774Z,20.36
2018-06-18T08:53:58.972Z,20.50
2018-06-18T08:54:59.155Z,20.24
2018-06-18T08:55:59.372Z,20.13
2018-06-18T08:56:59.575Z,20.41
2018-06-18T08:57:59.770Z,20.57
2018-06-18T08:58:59.970Z,20.57
2018-06-18T09:00:00.182Z,20.57
2018-06-18T09:01:00.365Z,20.67
2018-06-18T09:02:00.578Z,20.99
2018-06-18T09:03:00.771Z,20.88
2018-06-18T09:04:00.963Z,20.99
2018-06-18T09:05:01.181Z,21.12
2018-06-18T09:06:01.393Z,21.29
2018-06-18T09:07:01.594Z,21.50
2018-06-18T09:08:01.804Z,21.46
2018-06-18T09:09:02.007Z,21.84
2018-06-18T09:10:02.197Z,21.75
2018-06-18T09:11:02.388Z,21.56
2018-06-18T09:12:02.582Z,21.59
2018-06-18T09:13:02.778Z,21.56
2018-06-18T09:14:02.977Z,21.86
2018-06-18T09:15:03.195Z,22.09
2018-06-18T09:17:35.599Z,21.77
2018-06-18T09:18:35.769Z,21.79
2018-06-18T09:19:35.983Z,22.27
2018-06-18T09:20:36.177Z,23.32
2018-06-18T09:21:36.375Z,23.79
2018-06-18T09:22:36.577Z,23.90
2018-06-18T09:23:36.799Z,23.68
2018-06-18T09:24:36.968Z,24.18
2018-06-18T09:25:37.154Z,23.93
2018-06-18T09:26:37.369Z,23.36
2018-06-18T09:27:37.581Z,23.05
2018-06-18T09:28:37.793Z,23.23
2018-06-18T09:29:37.992Z,22.77
2018-06-18T09:30:38.217Z,22.83
2018-06-18T09:31:38.429Z,23.39
2018-06-18T09:32:38.711Z,23.38
2018-06-18T09:33:38.836Z,23.68
2018-06-18T09:34:39.057Z,24.08
2018-06-18T09:35:39.261Z,24.42
2018-06-18T09:36:39.461Z,24.73
2018-06-18T09:37:39.654Z,24.46
2018-06-18T09:40:11.542Z,23.88
2018-06-18T09:41:11.728Z,23.66
2018-06-18T09:42:11.934Z,23.87
2018-06-18T09:43:12.126Z,24.10
2018-06-18T09:44:12.325Z,24.02
2018-06-18T09:45:12.546Z,24.61
2018-06-18T09:46:12.741Z,25.39
2018-06-18T09:48:44.868Z,24.90
2018-06-18T09:49:45.041Z,24.88
2018-06-18T09:50:45.241Z,25.33
2018-06-18T09:51:45.445Z,24.69
2018-06-18T09:52:45.649Z,24.46
2018-06-18T09:53:45.840Z,24.69
2018-06-18T09:54:46.061Z,24.30
2018-06-18T09:55:46.296Z,24.25
2018-06-18T09:56:46.483Z,24.32
2018-06-18T09:57:46.692Z,25.18
2018-06-18T09:58:46.885Z,25.18
2018-06-18T09:59:47.086Z,24.67
2018-06-18T10:00:47.291Z,24.30
2018-06-18T10:01:47.485Z,25.14
2018-06-18T10:02:47.693Z,25.10
2018-06-18T10:03:47.898Z,24.98
2018-06-18T10:04:48.118Z,25.03
2018-06-18T10:05:48.301Z,25.42
2018-06-18T10:06:48.518Z,25.80
2018-06-18T10:07:48.741Z,25.55
2018-06-18T10:08:49.051Z,25.05
2018-06-18T10:09:49.147Z,24.90
2018-06-18T10:10:49.360Z,24.95
2018-06-18T10:11:49.579Z,24.15
2018-06-18T10:12:49.794Z,24.93
2018-06-18T10:13:50.000Z,25.39
2018-06-18T10:14:50.205Z,24.73
2018-06-18T10:15:50.444Z,24.52
2018-06-18T10:16:50.606Z,24.39
2018-06-18T10:17:50.822Z,24.67
2018-06-18T10:18:51.011Z,24.68
2018-06-18T10:19:51.202Z,24.96
2018-06-18T10:20:51.409Z,25.38
2018-06-18T10:21:51.628Z,24.99
2018-06-18T10:22:51.836Z,25.06
2018-06-18T10:23:52.054Z,24.95
2018-06-18T10:24:52.252Z,24.09
2018-06-18T10:25:52.453Z,23.66
2018-06-18T10:26:52.669Z,23.13
2018-06-18T10:27:52.861Z,23.09
2018-06-18T10:28:53.062Z,23.43
2018-06-18T10:29:53.276Z,23.47
2018-06-18T10:30:53.496Z,23.33
2018-06-18T10:31:53.694Z,23.20
2018-06-18T10:32:53.917Z,23.12
2018-06-18T10:33:54.132Z,22.97
2018-06-18T10:34:54.353Z,23.38
2018-06-18T10:35:54.572Z,23.31
2018-06-18T10:36:54.764Z,23.23
2018-06-18T10:37:54.963Z,23.38
2018-06-18T10:38:55.152Z,23.57
2018-06-18T10:39:55.360Z,23.58
2018-06-18T10:40:55.568Z,23.66
2018-06-18T10:41:55.767Z,23.72
2018-06-18T10:42:55.964Z,23.75
2018-06-18T10:43:56.158Z,23.12
2018-06-18T10:44:56.388Z,23.13
2018-06-18T10:45:56.590Z,23.15
2018-06-18T10:46:56.808Z,22.88
2018-06-18T10:47:57.028Z,22.85
2018-06-18T10:48:57.264Z,22.91
2018-06-18T10:49:57.432Z,22.64
2018-06-18T10:50:57.626Z,22.76
2018-06-18T10:53:29.753Z,22.91
2018-06-18T10:54:29.931Z,23.54
2018-06-18T10:55:30.123Z,23.61
2018-06-18T10:56:30.326Z,23.65
2018-06-18T10:57:30.525Z,23.57
2018-06-18T10:58:30.717Z,23.94
2018-06-18T10:59:30.918Z,24.15
2018-06-18T11:00:31.112Z,23.90
2018-06-18T11:01:31.306Z,23.80
2018-06-18T11:02:31.497Z,23.47
2018-06-18T11:03:31.708Z,23.23
2018-06-18T11:04:31.912Z,23.39
2018-06-18T11:05:32.142Z,23.12
2018-06-18T11:06:32.356Z,23.22
2018-06-18T11:07:32.568Z,23.27
2018-06-18T11:08:32.776Z,23.25
2018-06-18T11:09:32.987Z,23.22
2018-06-18T11:10:33.193Z,23.10
2018-06-18T11:11:33.418Z,23.17
2018-06-18T11:12:33.609Z,23.47
2018-06-18T11:13:33.817Z,23.27
2018-06-18T11:14:34.036Z,23.17
2018-06-18T11:15:34.237Z,23.40
2018-06-18T11:16:34.633Z,23.84
2018-06-18T11:17:34.658Z,23.75
2018-06-18T11:18:34.872Z,23.50
2018-06-18T11:19:35.069Z,23.43
2018-06-18T11:20:35.293Z,23.53
2018-06-18T11:21:35.489Z,23.57
2018-06-18T11:22:35.674Z,23.57
2018-06-18T11:23:35.886Z,23.46
2018-06-18T11:24:36.179Z,23.75
2018-06-18T11:25:36.310Z,23.97
2018-06-18T11:26:36.619Z,23.60
2018-06-18T11:27:36.736Z,23.69
2018-06-18T11:28:36.946Z,23.94
2018-06-18T11:29:37.146Z,24.28
2018-06-18T11:30:37.358Z,24.49
2018-06-18T11:31:37.585Z,24.47
2018-06-18T11:32:37.869Z,24.34
2018-06-18T11:33:38.008Z,24.53
2018-06-18T11:34:38.195Z,24.39
2018-06-18T11:35:38.437Z,24.78
2018-06-18T11:36:38.655Z,24.43
2018-06-18T11:37:38.843Z,24.21
2018-06-18T11:38:39.024Z,24.03
2018-06-18T11:39:39.327Z,24.21
2018-06-18T11:40:39.490Z,24.15
2018-06-18T11:41:39.731Z,23.93
2018-06-18T11:42:39.848Z,23.80
2018-06-18T11:43:40.090Z,23.72
2018-06-18T11:44:40.260Z,23.23
2018-06-18T11:45:40.478Z,22.98
2018-06-18T11:48:12.400Z,22.57
2018-06-18T11:49:12.436Z,22.58
2018-06-18T11:50:12.636Z,22.47
2018-06-18T11:51:12.823Z,22.70
2018-06-18T11:52:13.014Z,22.31
2018-06-18T11:53:13.216Z,22.24
2018-06-18T11:54:13.462Z,22.17
2018-06-18T11:55:13.616Z,22.07
2018-06-18T11:56:13.808Z,22.18
2018-06-18T11:57:14.005Z,22.02
2018-06-18T11:58:14.210Z,22.33
2018-06-18T11:59:14.419Z,22.36
2018-06-18T12:00:14.635Z,22.37
2018-06-18T12:01:14.833Z,22.24
2018-06-18T12:02:15.038Z,22.31
2018-06-18T12:03:15.247Z,22.21
2018-06-18T12:04:15.426Z,22.54
2018-06-18T12:05:15.636Z,22.58
2018-06-18T12:06:15.845Z,22.76
2018-06-18T12:07:16.089Z,22.88
2018-06-18T12:08:16.264Z,22.95
2018-06-18T12:09:16.480Z,23.19
2018-06-18T12:10:16.673Z,23.12
2018-06-18T12:11:16.895Z,23.15
2018-06-18T12:12:17.096Z,23.31
2018-06-18T12:13:17.302Z,23.54
2018-06-18T12:14:17.493Z,23.75
2018-06-18T12:15:17.700Z,23.84
2018-06-18T12:16:17.887Z,23.85
2018-06-18T12:17:18.169Z,24.00
2018-06-18T12:18:18.257Z,23.80
2018-06-18T12:19:18.445Z,23.80
2018-06-18T12:20:18.645Z,24.09
2018-06-18T12:21:18.857Z,24.16
2018-06-18T12:22:19.112Z,24.12
2018-06-18T12:23:19.275Z,24.16
2018-06-18T12:24:19.485Z,24.09
2018-06-18T12:25:19.723Z,24.02
2018-06-18T12:26:19.916Z,23.73
2018-06-18T12:27:20.123Z,23.69
2018-06-18T12:28:20.332Z,23.51
2018-06-18T12:29:20.537Z,23.39
2018-06-18T12:30:20.757Z,22.98
2018-06-18T12:31:20.959Z,22.85
2018-06-18T12:32:21.172Z,22.90
2018-06-18T12:33:21.373Z,22.94
2018-06-18T12:34:21.588Z,23.25
2018-06-18T12:35:21.820Z,23.38
2018-06-18T12:36:22.011Z,23.22
2018-06-18T12:37:22.196Z,23.10
2018-06-18T12:38:22.396Z,23.28
2018-06-18T12:39:22.612Z,23.19
2018-06-18T12:40:22.832Z,22.86
2018-06-18T12:41:23.078Z,22.60
2018-06-18T12:42:23.225Z,22.58
2018-06-18T12:43:23.435Z,22.51
2018-06-18T12:44:23.651Z,22.58
2018-06-18T12:45:23.841Z,22.72
2018-06-18T12:46:24.034Z,22.94
2018-06-18T12:47:24.217Z,22.92
2018-06-18T12:48:24.406Z,23.13
2018-06-18T12:49:24.617Z,23.07
2018-06-18T12:50:24.826Z,23.25
2018-06-18T12:51:25.029Z,23.50
2018-06-18T12:52:25.239Z,23.48
2018-06-18T12:53:25.448Z,23.27
2018-06-18T12:54:25.650Z,23.39
2018-06-18T12:55:25.863Z,23.22
2018-06-18T12:56:26.084Z,23.04
2018-06-18T12:57:26.310Z,23.32
2018-06-18T12:58:26.503Z,23.46
2018-06-18T12:59:26.699Z,23.69
2018-06-18T13:00:26.913Z,23.93
2018-06-18T13:01:27.109Z,24.06
2018-06-18T13:02:27.314Z,23.95
2018-06-18T13:03:27.536Z,24.08
2018-06-18T13:04:27.716Z,23.94
2018-06-18T13:05:27.946Z,23.85
2018-06-18T13:06:28.158Z,24.15
2018-06-18T13:07:28.364Z,24.27
2018-06-18T13:08:28.564Z,24.18
2018-06-18T13:09:28.755Z,24.21
2018-06-18T13:12:00.587Z,24.42
2018-06-18T13:13:00.775Z,24.18
2018-06-18T13:15:33.169Z,24.58
2018-06-18T13:16:33.097Z,24.80
2018-06-18T13:17:33.297Z,24.83
2018-06-18T13:18:33.518Z,24.60
2018-06-18T13:19:33.733Z,24.64
2018-06-18T13:20:33.925Z,24.57
2018-06-18T13:21:34.139Z,24.62
2018-06-18T13:22:34.352Z,24.35
2018-06-18T13:23:34.546Z,24.09
2018-06-18T13:24:34.749Z,24.13
2018-06-18T13:25:34.961Z,24.03
2018-06-18T13:26:35.163Z,23.85
2018-06-18T13:27:35.350Z,23.84
2018-06-18T13:28:35.558Z,23.78
2018-06-18T13:29:35.752Z,23.83
2018-06-18T13:30:35.963Z,23.88
2018-06-18T13:31:36.174Z,23.85
2018-06-18T13:32:36.367Z,23.80
2018-06-18T13:33:36.567Z,23.72